sensor_id;sensor_type;location;lat;lon;timestamp;P1;durP1;ratioP1;P2;durP2;ratioP2
16870;SDS011;8552;48.120;-1.456;2022-12-07T00:00:29;21.80;;;12.90;;
16870;SDS011;8552;48.120;-1.456;2022-12-07T00:02:55;22.97;;;13.23;;
16870;SDS011;8552;48.120;-1.456;2022-12-07T00:05:21;20.63;;;12.43;;
16870;SDS011;8552;48.120;-1.456;2022-12-07T00:07:47;21.93;;;13.07;;
16870;SDS011;8552;48.120;-1.456;2022-12-07T00:10:13;24.63;;;12.57;;
16870;SDS011;8552;48.120;-1.456;2022-12-07T00:12:39;24.53;;;12.83;;
16870;SDS011;8552;48.120;-1.456;2022-12-07T00:15:05;24.57;;;13.27;;
16870;SDS011;8552;48.120;-1.456;2022-12-07T00:17:31;25.20;;;12.00;;
16870;SDS011;8552;48.120;-1.456;2022-12-07T00:19:58;23.50;;;13.07;;
16870;SDS011;8552;48.120;-1.456;2022-12-07T00:22:24;26.67;;;14.43;;
16870;SDS011;8552;48.120;-1.456;2022-12-07T00:24:50;25.07;;;12.67;;
16870;SDS011;8552;48.120;-1.456;2022-12-07T00:27:16;26.43;;;13.80;;
16870;SDS011;8552;48.120;-1.456;2022-12-07T00:29:42;25.53;;;13.43;;
16870;SDS011;8552;48.120;-1.456;2022-12-07T00:32:08;26.00;;;13.30;;
16870;SDS011;8552;48.120;-1.456;2022-12-07T00:34:34;25.60;;;13.40;;
16870;SDS011;8552;48.120;-1.456;2022-12-07T00:37:00;23.67;;;13.03;;
16870;SDS011;8552;48.120;-1.456;2022-12-07T00:39:26;23.00;;;12.63;;
16870;SDS011;8552;48.120;-1.456;2022-12-07T00:41:52;27.13;;;13.43;;
16870;SDS011;8552;48.120;-1.456;2022-12-07T00:44:18;23.97;;;13.10;;
16870;SDS011;8552;48.120;-1.456;2022-12-07T00:46:44;24.37;;;12.67;;
16870;SDS011;8552;48.120;-1.456;2022-12-07T00:49:11;23.47;;;12.07;;
16870;SDS011;8552;48.120;-1.456;2022-12-07T00:51:37;20.67;;;11.30;;
16870;SDS011;8552;48.120;-1.456;2022-12-07T00:54:03;18.53;;;10.60;;
16870;SDS011;8552;48.120;-1.456;2022-12-07T00:56:30;23.43;;;11.67;;
16870;SDS011;8552;48.120;-1.456;2022-12-07T00:58:56;19.40;;;12.10;;
16870;SDS011;8552;48.120;-1.456;2022-12-07T01:01:23;24.40;;;12.97;;
16870;SDS011;8552;48.120;-1.456;2022-12-07T01:03:50;24.13;;;12.93;;
16870;SDS011;8552;48.120;-1.456;2022-12-07T01:06:17;26.63;;;12.90;;
16870;SDS011;8552;48.120;-1.456;2022-12-07T01:08:44;23.03;;;12.27;;
16870;SDS011;8552;48.120;-1.456;2022-12-07T01:11:12;22.30;;;11.97;;
16870;SDS011;8552;48.120;-1.456;2022-12-07T01:13:39;24.37;;;12.30;;
16870;SDS011;8552;48.120;-1.456;2022-12-07T01:16:06;22.53;;;12.17;;
16870;SDS011;8552;48.120;-1.456;2022-12-07T01:18:33;19.93;;;10.73;;
16870;SDS011;8552;48.120;-1.456;2022-12-07T01:21:10;21.73;;;11.00;;
16870;SDS011;8552;48.120;-1.456;2022-12-07T01:23:36;18.90;;;10.23;;
16870;SDS011;8552;48.120;-1.456;2022-12-07T01:26:05;19.33;;;11.53;;
16870;SDS011;8552;48.120;-1.456;2022-12-07T01:28:31;22.47;;;11.90;;
16870;SDS011;8552;48.120;-1.456;2022-12-07T01:30:58;25.13;;;13.20;;
16870;SDS011;8552;48.120;-1.456;2022-12-07T01:33:26;23.70;;;12.20;;
16870;SDS011;8552;48.120;-1.456;2022-12-07T01:35:52;22.93;;;12.20;;
16870;SDS011;8552;48.120;-1.456;2022-12-07T01:38:18;22.10;;;12.70;;
16870;SDS011;8552;48.120;-1.456;2022-12-07T01:40:44;20.40;;;12.07;;
16870;SDS011;8552;48.120;-1.456;2022-12-07T01:43:16;21.23;;;11.63;;
16870;SDS011;8552;48.120;-1.456;2022-12-07T01:45:44;21.80;;;12.07;;
16870;SDS011;8552;48.120;-1.456;2022-12-07T01:48:11;25.30;;;11.63;;
16870;SDS011;8552;48.120;-1.456;2022-12-07T01:50:39;20.43;;;10.60;;
16870;SDS011;8552;48.120;-1.456;2022-12-07T01:53:06;20.90;;;11.33;;
16870;SDS011;8552;48.120;-1.456;2022-12-07T01:55:34;20.47;;;10.70;;
16870;SDS011;8552;48.120;-1.456;2022-12-07T01:58:01;21.67;;;11.50;;
16870;SDS011;8552;48.120;-1.456;2022-12-07T02:00:27;24.43;;;12.07;;
16870;SDS011;8552;48.120;-1.456;2022-12-07T02:05:38;27.23;;;12.83;;
16870;SDS011;8552;48.120;-1.456;2022-12-07T02:08:04;26.00;;;13.50;;
16870;SDS011;8552;48.120;-1.456;2022-12-07T02:10:31;27.37;;;13.50;;
16870;SDS011;8552;48.120;-1.456;2022-12-07T02:13:13;29.40;;;14.90;;
16870;SDS011;8552;48.120;-1.456;2022-12-07T02:15:45;32.77;;;14.63;;
16870;SDS011;8552;48.120;-1.456;2022-12-07T02:20:40;27.33;;;13.53;;
16870;SDS011;8552;48.120;-1.456;2022-12-07T02:28:27;22.90;;;12.50;;
16870;SDS011;8552;48.120;-1.456;2022-12-07T02:30:55;26.67;;;13.23;;
16870;SDS011;8552;48.120;-1.456;2022-12-07T02:33:26;22.10;;;12.43;;
16870;SDS011;8552;48.120;-1.456;2022-12-07T02:36:06;25.87;;;13.23;;
16870;SDS011;8552;48.120;-1.456;2022-12-07T02:38:38;26.13;;;13.60;;
16870;SDS011;8552;48.120;-1.456;2022-12-07T02:41:06;31.30;;;14.40;;
16870;SDS011;8552;48.120;-1.456;2022-12-07T02:43:34;25.53;;;13.20;;
16870;SDS011;8552;48.120;-1.456;2022-12-07T02:46:03;24.03;;;13.57;;
16870;SDS011;8552;48.120;-1.456;2022-12-07T02:48:30;22.07;;;12.00;;
16870;SDS011;8552;48.120;-1.456;2022-12-07T02:50:57;24.33;;;12.57;;
16870;SDS011;8552;48.120;-1.456;2022-12-07T02:55:55;24.70;;;12.20;;
16870;SDS011;8552;48.120;-1.456;2022-12-07T02:58:25;22.03;;;11.47;;
16870;SDS011;8552;48.120;-1.456;2022-12-07T03:00:57;21.43;;;11.37;;
16870;SDS011;8552;48.120;-1.456;2022-12-07T03:03:27;22.80;;;11.93;;
16870;SDS011;8552;48.120;-1.456;2022-12-07T03:08:35;22.97;;;11.67;;
16870;SDS011;8552;48.120;-1.456;2022-12-07T03:11:04;21.97;;;11.00;;
16870;SDS011;8552;48.120;-1.456;2022-12-07T03:16:09;40.13;;;14.50;;
16870;SDS011;8552;48.120;-1.456;2022-12-07T03:18:40;24.80;;;12.20;;
16870;SDS011;8552;48.120;-1.456;2022-12-07T03:21:14;26.23;;;12.23;;
16870;SDS011;8552;48.120;-1.456;2022-12-07T03:23:42;20.30;;;12.00;;
16870;SDS011;8552;48.120;-1.456;2022-12-07T03:26:10;23.70;;;11.63;;
16870;SDS011;8552;48.120;-1.456;2022-12-07T03:28:39;22.77;;;10.50;;
16870;SDS011;8552;48.120;-1.456;2022-12-07T03:31:29;21.27;;;11.77;;
16870;SDS011;8552;48.120;-1.456;2022-12-07T03:36:24;20.93;;;10.77;;
16870;SDS011;8552;48.120;-1.456;2022-12-07T03:38:54;18.43;;;9.37;;
16870;SDS011;8552;48.120;-1.456;2022-12-07T03:41:25;20.90;;;10.63;;
16870;SDS011;8552;48.120;-1.456;2022-12-07T03:43:51;19.33;;;10.83;;
16870;SDS011;8552;48.120;-1.456;2022-12-07T03:53:54;21.10;;;11.60;;
16870;SDS011;8552;48.120;-1.456;2022-12-07T03:56:23;21.03;;;11.17;;
16870;SDS011;8552;48.120;-1.456;2022-12-07T03:58:49;20.57;;;10.47;;
16870;SDS011;8552;48.120;-1.456;2022-12-07T04:01:17;20.33;;;11.00;;
16870;SDS011;8552;48.120;-1.456;2022-12-07T04:03:43;20.63;;;10.37;;
16870;SDS011;8552;48.120;-1.456;2022-12-07T04:06:09;19.47;;;9.33;;
16870;SDS011;8552;48.120;-1.456;2022-12-07T04:08:35;20.93;;;11.60;;
16870;SDS011;8552;48.120;-1.456;2022-12-07T04:11:01;22.87;;;11.67;;
16870;SDS011;8552;48.120;-1.456;2022-12-07T04:13:28;25.97;;;12.83;;
16870;SDS011;8552;48.120;-1.456;2022-12-07T04:15:54;19.17;;;10.03;;
16870;SDS011;8552;48.120;-1.456;2022-12-07T04:18:20;19.43;;;10.77;;
16870;SDS011;8552;48.120;-1.456;2022-12-07T04:20:46;21.17;;;10.80;;
16870;SDS011;8552;48.120;-1.456;2022-12-07T04:23:12;25.63;;;13.67;;
16870;SDS011;8552;48.120;-1.456;2022-12-07T04:25:38;22.30;;;11.83;;
16870;SDS011;8552;48.120;-1.456;2022-12-07T04:28:04;22.43;;;11.90;;
16870;SDS011;8552;48.120;-1.456;2022-12-07T04:30:31;22.07;;;11.43;;
16870;SDS011;8552;48.120;-1.456;2022-12-07T04:32:57;22.67;;;11.53;;
16870;SDS011;8552;48.120;-1.456;2022-12-07T04:35:23;21.77;;;10.70;;
16870;SDS011;8552;48.120;-1.456;2022-12-07T04:37:49;27.67;;;13.03;;
16870;SDS011;8552;48.120;-1.456;2022-12-07T04:40:15;24.30;;;12.00;;
16870;SDS011;8552;48.120;-1.456;2022-12-07T04:42:41;26.47;;;12.43;;
16870;SDS011;8552;48.120;-1.456;2022-12-07T04:45:08;25.47;;;14.27;;
16870;SDS011;8552;48.120;-1.456;2022-12-07T04:47:34;33.33;;;13.93;;
16870;SDS011;8552;48.120;-1.456;2022-12-07T04:50:00;23.80;;;13.17;;
16870;SDS011;8552;48.120;-1.456;2022-12-07T04:52:26;26.83;;;12.97;;
16870;SDS011;8552;48.120;-1.456;2022-12-07T04:54:52;23.37;;;12.37;;
16870;SDS011;8552;48.120;-1.456;2022-12-07T04:57:19;23.00;;;12.80;;
16870;SDS011;8552;48.120;-1.456;2022-12-07T04:59:45;23.60;;;12.17;;
16870;SDS011;8552;48.120;-1.456;2022-12-07T05:02:11;23.70;;;11.77;;
16870;SDS011;8552;48.120;-1.456;2022-12-07T05:04:37;20.97;;;10.77;;
16870;SDS011;8552;48.120;-1.456;2022-12-07T05:07:03;22.20;;;11.23;;
16870;SDS011;8552;48.120;-1.456;2022-12-07T05:09:29;21.53;;;10.93;;
16870;SDS011;8552;48.120;-1.456;2022-12-07T05:11:55;24.27;;;12.57;;
16870;SDS011;8552;48.120;-1.456;2022-12-07T05:14:21;25.83;;;11.40;;
16870;SDS011;8552;48.120;-1.456;2022-12-07T05:16:48;21.30;;;11.30;;
16870;SDS011;8552;48.120;-1.456;2022-12-07T05:19:14;21.83;;;11.23;;
16870;SDS011;8552;48.120;-1.456;2022-12-07T05:21:41;24.00;;;11.70;;
16870;SDS011;8552;48.120;-1.456;2022-12-07T05:24:07;20.93;;;10.77;;
16870;SDS011;8552;48.120;-1.456;2022-12-07T05:26:33;23.23;;;11.80;;
16870;SDS011;8552;48.120;-1.456;2022-12-07T05:29:00;19.20;;;9.30;;
16870;SDS011;8552;48.120;-1.456;2022-12-07T05:31:26;20.77;;;11.20;;
16870;SDS011;8552;48.120;-1.456;2022-12-07T05:33:53;21.67;;;9.77;;
16870;SDS011;8552;48.120;-1.456;2022-12-07T05:36:19;19.13;;;9.90;;
16870;SDS011;8552;48.120;-1.456;2022-12-07T05:38:45;32.57;;;9.53;;
16870;SDS011;8552;48.120;-1.456;2022-12-07T05:41:12;25.13;;;10.10;;
16870;SDS011;8552;48.120;-1.456;2022-12-07T05:43:59;17.57;;;8.17;;
16870;SDS011;8552;48.120;-1.456;2022-12-07T05:46:25;19.43;;;9.37;;
16870;SDS011;8552;48.120;-1.456;2022-12-07T05:48:51;20.20;;;9.77;;
16870;SDS011;8552;48.120;-1.456;2022-12-07T05:51:17;21.10;;;9.03;;
16870;SDS011;8552;48.120;-1.456;2022-12-07T05:53:43;19.03;;;8.57;;
16870;SDS011;8552;48.120;-1.456;2022-12-07T05:56:09;18.23;;;9.33;;
16870;SDS011;8552;48.120;-1.456;2022-12-07T05:58:35;20.60;;;9.70;;
16870;SDS011;8552;48.120;-1.456;2022-12-07T06:01:20;24.60;;;9.03;;
16870;SDS011;8552;48.120;-1.456;2022-12-07T06:03:46;20.27;;;10.60;;
16870;SDS011;8552;48.120;-1.456;2022-12-07T06:06:12;16.33;;;8.73;;
16870;SDS011;8552;48.120;-1.456;2022-12-07T06:08:38;21.33;;;9.37;;
16870;SDS011;8552;48.120;-1.456;2022-12-07T06:11:04;16.93;;;9.07;;
16870;SDS011;8552;48.120;-1.456;2022-12-07T06:13:49;19.77;;;9.07;;
16870;SDS011;8552;48.120;-1.456;2022-12-07T06:16:15;17.57;;;9.03;;
16870;SDS011;8552;48.120;-1.456;2022-12-07T06:18:41;17.27;;;9.17;;
16870;SDS011;8552;48.120;-1.456;2022-12-07T06:21:07;18.23;;;8.97;;
16870;SDS011;8552;48.120;-1.456;2022-12-07T06:23:33;14.37;;;8.03;;
16870;SDS011;8552;48.120;-1.456;2022-12-07T06:25:59;15.07;;;8.30;;
16870;SDS011;8552;48.120;-1.456;2022-12-07T06:28:25;18.43;;;10.03;;
16870;SDS011;8552;48.120;-1.456;2022-12-07T06:31:01;17.77;;;10.77;;
16870;SDS011;8552;48.120;-1.456;2022-12-07T06:33:27;20.20;;;9.57;;
16870;SDS011;8552;48.120;-1.456;2022-12-07T06:35:53;14.07;;;7.90;;
16870;SDS011;8552;48.120;-1.456;2022-12-07T06:38:19;15.73;;;8.27;;
16870;SDS011;8552;48.120;-1.456;2022-12-07T06:40:45;13.70;;;7.53;;
16870;SDS011;8552;48.120;-1.456;2022-12-07T06:43:12;15.20;;;8.43;;
16870;SDS011;8552;48.120;-1.456;2022-12-07T06:45:38;17.70;;;8.37;;
16870;SDS011;8552;48.120;-1.456;2022-12-07T06:48:04;16.10;;;8.77;;
16870;SDS011;8552;48.120;-1.456;2022-12-07T06:50:30;14.80;;;8.43;;
16870;SDS011;8552;48.120;-1.456;2022-12-07T06:52:56;20.00;;;9.20;;
16870;SDS011;8552;48.120;-1.456;2022-12-07T06:55:22;15.83;;;8.87;;
16870;SDS011;8552;48.120;-1.456;2022-12-07T06:57:48;14.70;;;7.80;;
16870;SDS011;8552;48.120;-1.456;2022-12-07T07:00:14;15.17;;;8.20;;
16870;SDS011;8552;48.120;-1.456;2022-12-07T07:02:41;15.63;;;8.70;;
16870;SDS011;8552;48.120;-1.456;2022-12-07T07:05:07;14.77;;;8.77;;
16870;SDS011;8552;48.120;-1.456;2022-12-07T07:07:33;13.37;;;8.07;;
16870;SDS011;8552;48.120;-1.456;2022-12-07T07:09:59;16.03;;;8.87;;
16870;SDS011;8552;48.120;-1.456;2022-12-07T07:12:25;14.13;;;8.37;;
16870;SDS011;8552;48.120;-1.456;2022-12-07T07:14:51;16.40;;;8.63;;
16870;SDS011;8552;48.120;-1.456;2022-12-07T07:17:17;18.77;;;9.60;;
16870;SDS011;8552;48.120;-1.456;2022-12-07T07:19:43;13.73;;;8.30;;
16870;SDS011;8552;48.120;-1.456;2022-12-07T07:22:09;13.13;;;7.83;;
16870;SDS011;8552;48.120;-1.456;2022-12-07T07:24:35;19.53;;;8.73;;
16870;SDS011;8552;48.120;-1.456;2022-12-07T07:27:01;16.67;;;10.30;;
16870;SDS011;8552;48.120;-1.456;2022-12-07T07:29:27;30.87;;;13.63;;
16870;SDS011;8552;48.120;-1.456;2022-12-07T07:31:53;15.17;;;9.07;;
16870;SDS011;8552;48.120;-1.456;2022-12-07T07:34:19;14.63;;;7.53;;
16870;SDS011;8552;48.120;-1.456;2022-12-07T07:36:45;15.20;;;8.00;;
16870;SDS011;8552;48.120;-1.456;2022-12-07T07:39:11;17.57;;;7.73;;
16870;SDS011;8552;48.120;-1.456;2022-12-07T07:41:38;14.83;;;7.83;;
16870;SDS011;8552;48.120;-1.456;2022-12-07T07:44:04;14.83;;;7.97;;
16870;SDS011;8552;48.120;-1.456;2022-12-07T07:46:30;14.60;;;7.40;;
16870;SDS011;8552;48.120;-1.456;2022-12-07T07:48:58;17.00;;;9.30;;
16870;SDS011;8552;48.120;-1.456;2022-12-07T07:51:24;16.80;;;8.43;;
16870;SDS011;8552;48.120;-1.456;2022-12-07T07:53:50;15.63;;;8.77;;
16870;SDS011;8552;48.120;-1.456;2022-12-07T07:56:16;18.00;;;8.20;;
16870;SDS011;8552;48.120;-1.456;2022-12-07T07:58:42;19.73;;;9.10;;
16870;SDS011;8552;48.120;-1.456;2022-12-07T08:01:08;21.70;;;9.00;;
16870;SDS011;8552;48.120;-1.456;2022-12-07T08:03:34;16.30;;;8.33;;
16870;SDS011;8552;48.120;-1.456;2022-12-07T08:06:04;25.90;;;12.40;;
16870;SDS011;8552;48.120;-1.456;2022-12-07T08:08:30;19.00;;;10.87;;
16870;SDS011;8552;48.120;-1.456;2022-12-07T08:10:56;22.87;;;11.43;;
16870;SDS011;8552;48.120;-1.456;2022-12-07T08:13:25;25.17;;;9.77;;
16870;SDS011;8552;48.120;-1.456;2022-12-07T08:15:51;15.87;;;8.10;;
16870;SDS011;8552;48.120;-1.456;2022-12-07T08:18:17;15.37;;;8.30;;
16870;SDS011;8552;48.120;-1.456;2022-12-07T08:20:43;16.33;;;9.33;;
16870;SDS011;8552;48.120;-1.456;2022-12-07T08:23:09;15.43;;;8.73;;
16870;SDS011;8552;48.120;-1.456;2022-12-07T08:25:36;13.03;;;8.47;;
16870;SDS011;8552;48.120;-1.456;2022-12-07T08:28:02;16.37;;;9.17;;
16870;SDS011;8552;48.120;-1.456;2022-12-07T08:30:29;15.43;;;8.87;;
16870;SDS011;8552;48.120;-1.456;2022-12-07T08:32:56;12.67;;;8.17;;
16870;SDS011;8552;48.120;-1.456;2022-12-07T08:35:22;20.93;;;10.93;;
16870;SDS011;8552;48.120;-1.456;2022-12-07T08:37:48;16.17;;;8.63;;
16870;SDS011;8552;48.120;-1.456;2022-12-07T08:40:14;14.57;;;8.57;;
16870;SDS011;8552;48.120;-1.456;2022-12-07T08:42:44;38.20;;;8.00;;
16870;SDS011;8552;48.120;-1.456;2022-12-07T08:45:10;15.13;;;8.10;;
16870;SDS011;8552;48.120;-1.456;2022-12-07T08:47:39;32.20;;;13.43;;
16870;SDS011;8552;48.120;-1.456;2022-12-07T08:50:06;20.67;;;11.43;;
16870;SDS011;8552;48.120;-1.456;2022-12-07T08:52:33;15.30;;;9.20;;
16870;SDS011;8552;48.120;-1.456;2022-12-07T08:55:00;16.50;;;9.80;;
16870;SDS011;8552;48.120;-1.456;2022-12-07T08:57:27;20.77;;;9.53;;
16870;SDS011;8552;48.120;-1.456;2022-12-07T08:59:53;19.33;;;9.93;;
16870;SDS011;8552;48.120;-1.456;2022-12-07T09:02:19;12.77;;;8.00;;
16870;SDS011;8552;48.120;-1.456;2022-12-07T09:04:45;16.70;;;8.63;;
16870;SDS011;8552;48.120;-1.456;2022-12-07T09:07:11;16.37;;;9.10;;
16870;SDS011;8552;48.120;-1.456;2022-12-07T09:09:38;31.10;;;10.93;;
16870;SDS011;8552;48.120;-1.456;2022-12-07T09:12:04;19.37;;;8.93;;
16870;SDS011;8552;48.120;-1.456;2022-12-07T09:14:30;16.17;;;8.37;;
16870;SDS011;8552;48.120;-1.456;2022-12-07T09:17:04;20.57;;;9.13;;
16870;SDS011;8552;48.120;-1.456;2022-12-07T09:19:30;15.37;;;8.83;;
16870;SDS011;8552;48.120;-1.456;2022-12-07T09:21:56;63.07;;;13.53;;
16870;SDS011;8552;48.120;-1.456;2022-12-07T09:24:22;31.93;;;12.30;;
16870;SDS011;8552;48.120;-1.456;2022-12-07T09:26:48;36.50;;;10.53;;
16870;SDS011;8552;48.120;-1.456;2022-12-07T09:29:14;81.50;;;11.67;;
16870;SDS011;8552;48.120;-1.456;2022-12-07T09:31:40;20.50;;;10.73;;
16870;SDS011;8552;48.120;-1.456;2022-12-07T09:34:07;17.67;;;9.77;;
16870;SDS011;8552;48.120;-1.456;2022-12-07T09:36:33;67.13;;;16.77;;
16870;SDS011;8552;48.120;-1.456;2022-12-07T09:38:59;35.73;;;10.60;;
16870;SDS011;8552;48.120;-1.456;2022-12-07T09:41:25;27.40;;;9.90;;
16870;SDS011;8552;48.120;-1.456;2022-12-07T09:43:52;26.67;;;10.57;;
16870;SDS011;8552;48.120;-1.456;2022-12-07T09:46:19;31.20;;;11.57;;
16870;SDS011;8552;48.120;-1.456;2022-12-07T09:48:47;38.80;;;11.93;;
16870;SDS011;8552;48.120;-1.456;2022-12-07T09:51:16;39.27;;;12.03;;
16870;SDS011;8552;48.120;-1.456;2022-12-07T09:53:42;42.83;;;11.67;;
16870;SDS011;8552;48.120;-1.456;2022-12-07T09:56:15;65.23;;;12.50;;
16870;SDS011;8552;48.120;-1.456;2022-12-07T09:58:42;29.33;;;11.20;;
16870;SDS011;8552;48.120;-1.456;2022-12-07T10:03:36;30.20;;;10.30;;
16870;SDS011;8552;48.120;-1.456;2022-12-07T10:06:02;37.33;;;10.20;;
16870;SDS011;8552;48.120;-1.456;2022-12-07T10:08:29;72.77;;;16.67;;
16870;SDS011;8552;48.120;-1.456;2022-12-07T10:10:55;62.30;;;30.87;;
16870;SDS011;8552;48.120;-1.456;2022-12-07T10:13:43;36.10;;;11.33;;
16870;SDS011;8552;48.120;-1.456;2022-12-07T10:18:52;33.77;;;10.83;;
16870;SDS011;8552;48.120;-1.456;2022-12-07T10:21:19;40.07;;;11.37;;
16870;SDS011;8552;48.120;-1.456;2022-12-07T10:29:42;28.90;;;9.77;;
16870;SDS011;8552;48.120;-1.456;2022-12-07T10:31:44;38.27;;;12.47;;
16870;SDS011;8552;48.120;-1.456;2022-12-07T10:34:53;25.43;;;11.20;;
16870;SDS011;8552;48.120;-1.456;2022-12-07T10:39:51;35.07;;;13.43;;
16870;SDS011;8552;48.120;-1.456;2022-12-07T10:44:43;29.87;;;11.47;;
16870;SDS011;8552;48.120;-1.456;2022-12-07T10:52:30;26.97;;;13.60;;
16870;SDS011;8552;48.120;-1.456;2022-12-07T10:57:51;30.00;;;13.77;;
16870;SDS011;8552;48.120;-1.456;2022-12-07T11:00:21;28.87;;;12.47;;
16870;SDS011;8552;48.120;-1.456;2022-12-07T11:02:57;27.17;;;13.37;;
16870;SDS011;8552;48.120;-1.456;2022-12-07T11:08:53;39.37;;;15.30;;
16870;SDS011;8552;48.120;-1.456;2022-12-07T11:11:05;26.37;;;14.00;;
16870;SDS011;8552;48.120;-1.456;2022-12-07T11:21:30;31.60;;;15.10;;
16870;SDS011;8552;48.120;-1.456;2022-12-07T11:24:15;32.97;;;15.97;;
16870;SDS011;8552;48.120;-1.456;2022-12-07T11:26:51;31.27;;;16.10;;
16870;SDS011;8552;48.120;-1.456;2022-12-07T11:29:28;33.23;;;16.80;;
16870;SDS011;8552;48.120;-1.456;2022-12-07T11:37:15;20.90;;;12.60;;
16870;SDS011;8552;48.120;-1.456;2022-12-07T11:39:48;23.50;;;13.10;;
16870;SDS011;8552;48.120;-1.456;2022-12-07T11:42:27;23.77;;;12.10;;
16870;SDS011;8552;48.120;-1.456;2022-12-07T11:47:35;23.20;;;11.53;;
16870;SDS011;8552;48.120;-1.456;2022-12-07T11:52:50;21.43;;;11.70;;
16870;SDS011;8552;48.120;-1.456;2022-12-07T11:58:02;26.77;;;14.70;;
16870;SDS011;8552;48.120;-1.456;2022-12-07T12:00:29;21.90;;;13.40;;
16870;SDS011;8552;48.120;-1.456;2022-12-07T12:02:58;21.00;;;12.07;;
16870;SDS011;8552;48.120;-1.456;2022-12-07T12:05:25;21.10;;;12.30;;
16870;SDS011;8552;48.120;-1.456;2022-12-07T12:08:03;21.23;;;13.63;;
16870;SDS011;8552;48.120;-1.456;2022-12-07T12:18:35;21.70;;;13.13;;
16870;SDS011;8552;48.120;-1.456;2022-12-07T12:21:05;23.83;;;14.33;;
16870;SDS011;8552;48.120;-1.456;2022-12-07T12:23:43;24.90;;;13.73;;
16870;SDS011;8552;48.120;-1.456;2022-12-07T12:26:30;26.03;;;14.20;;
16870;SDS011;8552;48.120;-1.456;2022-12-07T12:29:00;21.13;;;13.13;;
16870;SDS011;8552;48.120;-1.456;2022-12-07T12:33:54;20.50;;;12.37;;
16870;SDS011;8552;48.120;-1.456;2022-12-07T12:46:53;20.87;;;12.70;;
16870;SDS011;8552;48.120;-1.456;2022-12-07T12:51:49;30.40;;;17.37;;
16870;SDS011;8552;48.120;-1.456;2022-12-07T12:54:23;28.37;;;16.83;;
16870;SDS011;8552;48.120;-1.456;2022-12-07T13:01:46;21.67;;;13.97;;
16870;SDS011;8552;48.120;-1.456;2022-12-07T13:06:44;22.97;;;14.30;;
16870;SDS011;8552;48.120;-1.456;2022-12-07T13:09:18;23.93;;;14.57;;
16870;SDS011;8552;48.120;-1.456;2022-12-07T13:11:46;21.27;;;12.80;;
16870;SDS011;8552;48.120;-1.456;2022-12-07T13:16:57;21.27;;;13.10;;
16870;SDS011;8552;48.120;-1.456;2022-12-07T13:24:57;20.13;;;12.83;;
16870;SDS011;8552;48.120;-1.456;2022-12-07T13:27:25;21.03;;;13.73;;
16870;SDS011;8552;48.120;-1.456;2022-12-07T13:29:53;24.20;;;13.97;;
16870;SDS011;8552;48.120;-1.456;2022-12-07T13:32:28;25.20;;;13.63;;
16870;SDS011;8552;48.120;-1.456;2022-12-07T13:34:55;21.37;;;13.03;;
16870;SDS011;8552;48.120;-1.456;2022-12-07T13:37:24;28.00;;;14.60;;
16870;SDS011;8552;48.120;-1.456;2022-12-07T13:39:53;22.77;;;14.80;;
16870;SDS011;8552;48.120;-1.456;2022-12-07T13:42:26;26.73;;;14.83;;
16870;SDS011;8552;48.120;-1.456;2022-12-07T13:44:53;21.83;;;13.60;;
16870;SDS011;8552;48.120;-1.456;2022-12-07T13:50:21;22.83;;;14.80;;
16870;SDS011;8552;48.120;-1.456;2022-12-07T13:52:48;25.20;;;14.57;;
16870;SDS011;8552;48.120;-1.456;2022-12-07T13:55:15;24.20;;;13.90;;
16870;SDS011;8552;48.120;-1.456;2022-12-07T13:57:42;25.30;;;15.57;;
16870;SDS011;8552;48.120;-1.456;2022-12-07T14:00:15;23.93;;;14.10;;
16870;SDS011;8552;48.120;-1.456;2022-12-07T14:05:33;20.07;;;12.93;;
16870;SDS011;8552;48.120;-1.456;2022-12-07T14:08:04;18.83;;;11.93;;
16870;SDS011;8552;48.120;-1.456;2022-12-07T14:10:31;21.70;;;13.67;;
16870;SDS011;8552;48.120;-1.456;2022-12-07T14:12:58;23.63;;;13.87;;
16870;SDS011;8552;48.120;-1.456;2022-12-07T14:17:54;23.73;;;14.00;;
16870;SDS011;8552;48.120;-1.456;2022-12-07T14:22:59;24.27;;;14.53;;
16870;SDS011;8552;48.120;-1.456;2022-12-07T14:25:43;23.83;;;15.73;;
16870;SDS011;8552;48.120;-1.456;2022-12-07T14:28:10;22.60;;;14.57;;
16870;SDS011;8552;48.120;-1.456;2022-12-07T14:30:50;28.13;;;19.00;;
16870;SDS011;8552;48.120;-1.456;2022-12-07T14:33:16;24.33;;;14.83;;
16870;SDS011;8552;48.120;-1.456;2022-12-07T14:35:42;21.90;;;14.00;;
16870;SDS011;8552;48.120;-1.456;2022-12-07T14:38:08;22.30;;;14.33;;
16870;SDS011;8552;48.120;-1.456;2022-12-07T14:40:34;23.87;;;15.37;;
16870;SDS011;8552;48.120;-1.456;2022-12-07T14:43:11;27.30;;;16.13;;
16870;SDS011;8552;48.120;-1.456;2022-12-07T14:45:37;22.17;;;15.33;;
16870;SDS011;8552;48.120;-1.456;2022-12-07T14:48:05;22.77;;;14.27;;
16870;SDS011;8552;48.120;-1.456;2022-12-07T14:50:31;28.07;;;15.63;;
16870;SDS011;8552;48.120;-1.456;2022-12-07T14:53:01;26.00;;;15.43;;
16870;SDS011;8552;48.120;-1.456;2022-12-07T14:55:30;23.83;;;14.83;;
16870;SDS011;8552;48.120;-1.456;2022-12-07T14:57:57;26.40;;;16.17;;
16870;SDS011;8552;48.120;-1.456;2022-12-07T15:00:24;23.10;;;14.63;;
16870;SDS011;8552;48.120;-1.456;2022-12-07T15:02:51;23.30;;;14.87;;
16870;SDS011;8552;48.120;-1.456;2022-12-07T15:05:17;24.20;;;15.03;;
16870;SDS011;8552;48.120;-1.456;2022-12-07T15:07:44;32.57;;;16.33;;
16870;SDS011;8552;48.120;-1.456;2022-12-07T15:10:30;26.97;;;14.80;;
16870;SDS011;8552;48.120;-1.456;2022-12-07T15:13:00;25.50;;;15.53;;
16870;SDS011;8552;48.120;-1.456;2022-12-07T15:15:45;29.90;;;16.13;;
16870;SDS011;8552;48.120;-1.456;2022-12-07T15:18:11;30.20;;;17.13;;
16870;SDS011;8552;48.120;-1.456;2022-12-07T15:20:37;23.60;;;14.20;;
16870;SDS011;8552;48.120;-1.456;2022-12-07T15:23:04;34.93;;;15.30;;
16870;SDS011;8552;48.120;-1.456;2022-12-07T15:25:30;21.47;;;13.80;;
16870;SDS011;8552;48.120;-1.456;2022-12-07T15:27:56;21.07;;;13.63;;
16870;SDS011;8552;48.120;-1.456;2022-12-07T15:30:22;25.53;;;14.47;;
16870;SDS011;8552;48.120;-1.456;2022-12-07T15:32:48;24.40;;;13.90;;
16870;SDS011;8552;48.120;-1.456;2022-12-07T15:35:15;20.30;;;13.53;;
16870;SDS011;8552;48.120;-1.456;2022-12-07T15:37:41;26.00;;;14.00;;
16870;SDS011;8552;48.120;-1.456;2022-12-07T15:40:07;22.17;;;13.10;;
16870;SDS011;8552;48.120;-1.456;2022-12-07T15:42:33;27.17;;;15.93;;
16870;SDS011;8552;48.120;-1.456;2022-12-07T15:44:59;24.50;;;14.07;;
16870;SDS011;8552;48.120;-1.456;2022-12-07T15:47:32;27.90;;;15.97;;
16870;SDS011;8552;48.120;-1.456;2022-12-07T15:49:59;26.90;;;14.23;;
16870;SDS011;8552;48.120;-1.456;2022-12-07T15:52:25;23.97;;;13.87;;
16870;SDS011;8552;48.120;-1.456;2022-12-07T15:54:52;24.73;;;13.77;;
16870;SDS011;8552;48.120;-1.456;2022-12-07T15:57:18;23.70;;;14.30;;
16870;SDS011;8552;48.120;-1.456;2022-12-07T15:59:44;20.70;;;12.67;;
16870;SDS011;8552;48.120;-1.456;2022-12-07T16:02:10;19.80;;;12.07;;
16870;SDS011;8552;48.120;-1.456;2022-12-07T16:04:36;19.70;;;12.10;;
16870;SDS011;8552;48.120;-1.456;2022-12-07T16:07:02;25.70;;;12.93;;
16870;SDS011;8552;48.120;-1.456;2022-12-07T16:09:28;20.47;;;12.37;;
16870;SDS011;8552;48.120;-1.456;2022-12-07T16:11:54;28.33;;;16.50;;
16870;SDS011;8552;48.120;-1.456;2022-12-07T16:14:21;23.00;;;14.33;;
16870;SDS011;8552;48.120;-1.456;2022-12-07T16:16:47;26.77;;;15.53;;
16870;SDS011;8552;48.120;-1.456;2022-12-07T16:19:13;37.47;;;19.40;;
16870;SDS011;8552;48.120;-1.456;2022-12-07T16:21:39;41.47;;;23.83;;
16870;SDS011;8552;48.120;-1.456;2022-12-07T16:24:05;43.83;;;23.47;;
16870;SDS011;8552;48.120;-1.456;2022-12-07T16:26:32;31.73;;;19.40;;
16870;SDS011;8552;48.120;-1.456;2022-12-07T16:28:58;39.03;;;21.97;;
16870;SDS011;8552;48.120;-1.456;2022-12-07T16:31:25;39.00;;;23.87;;
16870;SDS011;8552;48.120;-1.456;2022-12-07T16:33:55;30.90;;;18.40;;